Time;durP1;ratioP1;P1;durP2;ratioP2;P2;SDS_P1;SDS_P2;PMS_P1;PMS_P2;Temp;Humidity;BMP_temperature;BMP_pressure;BME280_temperature;BME280_humidity;BME280_pressure;Samples;Min_cycle;Max_cycle;Signal;HPM_P1;HPM_P2
2021/05/05 00:01:35;;;;;;;0.10;0.10;;;;;;;13.86;43.19;96861.16;5014958;28;20038;-61
2021/05/05 00:04:00;;;;;;;2.75;1.38;;;;;;;13.81;42.78;96855.75;5014747;28;20053;-61
2021/05/05 00:06:26;;;;;;;0.70;0.70;;;;;;;13.79;43.04;96855.22;5014507;28;20492;-61
2021/05/05 00:08:52;;;;;;;0.20;0.20;;;;;;;13.81;43.02;96853.00;5014233;28;20030;-61
2021/05/05 00:11:18;;;;;;;0.10;0.10;;;;;;;13.84;42.39;96852.38;5014344;28;20403;-61
2021/05/05 00:13:44;;;;;;;0.10;0.10;;;;;;;13.90;42.43;96856.69;5014802;28;20033;-60
2021/05/05 00:16:10;;;;;;;0.10;0.10;;;;;;;13.96;42.12;96849.94;5014166;28;20030;-61
2021/05/05 00:18:36;;;;;;;0.10;0.10;;;;;;;14.01;42.07;96849.00;5014496;28;20034;-61
2021/05/05 00:21:04;;;;;;;0.10;0.10;;;;;;;14.04;41.74;96847.59;5014687;28;20026;-60
2021/05/05 00:23:30;;;;;;;0.10;0.10;;;;;;;14.07;41.64;96844.22;5014202;28;20060;-61
2021/05/05 00:25:56;;;;;;;0.10;0.10;;;;;;;14.10;41.57;96849.13;5014272;28;20483;-61
2021/05/05 00:28:21;;;;;;;0.10;0.10;;;;;;;14.16;41.44;96843.22;5014325;28;20037;-61
2021/05/05 00:30:47;;;;;;;0.20;0.20;;;;;;;14.21;41.61;96839.53;5014158;28;20030;-60
2021/05/05 00:33:13;;;;;;;0.25;0.25;;;;;;;14.29;41.30;96837.97;5014108;28;20380;-61
2021/05/05 00:35:39;;;;;;;0.20;0.20;;;;;;;14.38;41.18;96838.88;4996273;28;20033;-61
2021/05/05 00:38:05;;;;;;;0.30;0.30;;;;;;;14.46;41.02;96837.38;5013853;28;20442;-60
2021/05/05 00:40:31;;;;;;;0.43;0.20;;;;;;;14.53;40.45;96835.81;4995293;28;20037;-60
2021/05/05 00:42:57;;;;;;;0.10;0.10;;;;;;;14.64;40.58;96832.88;5014005;28;20065;-61
2021/05/05 00:45:23;;;;;;;0.10;0.10;;;;;;;14.71;40.21;96831.31;5013791;28;20467;-60
2021/05/05 00:47:49;;;;;;;0.20;0.20;;;;;;;14.75;40.13;96827.91;5013575;28;20037;-60
2021/05/05 00:50:17;;;;;;;0.10;0.10;;;;;;;14.78;40.16;96827.28;4996118;28;20121;-60
2021/05/05 00:52:44;;;;;;;0.10;0.10;;;;;;;14.82;40.03;96817.25;5013735;28;20446;-60
2021/05/05 00:55:11;;;;;;;0.10;0.10;;;;;;;14.89;40.10;96817.66;5013805;28;20084;-61
2021/05/05 00:57:38;;;;;;;0.10;0.10;;;;;;;15.20;39.36;96819.69;5013203;28;20050;-61
2021/05/05 01:00:05;;;;;;;0.10;0.10;;;;;;;16.22;37.69;96815.38;5013709;28;20109;-61
2021/05/05 01:02:32;;;;;;;0.10;0.10;;;;;;;18.19;34.70;96806.03;5013637;28;20095;-62
2021/05/05 01:04:57;;;;;;;0.15;0.15;;;;;;;19.94;32.56;96819.41;5012063;28;20057;-63
2021/05/05 01:07:23;;;;;;;0.20;0.20;;;;;;;21.39;31.07;96810.81;5013558;28;20420;-61
2021/05/05 01:09:49;;;;;;;0.10;0.10;;;;;;;22.28;30.20;96803.22;5013311;28;20038;-61
2021/05/05 01:12:15;;;;;;;0.10;0.10;;;;;;;22.55;30.24;96809.09;5013510;28;20037;-60
2021/05/05 01:14:41;;;;;;;0.10;0.10;;;;;;;23.15;29.81;96799.69;5013261;28;20502;-60
2021/05/05 01:17:08;;;;;;;0.10;0.10;;;;;;;23.87;29.57;96803.97;4979326;28;20061;-59
2021/05/05 01:19:34;;;;;;;0.10;0.10;;;;;;;24.72;29.07;96792.59;5013099;28;20048;-60
2021/05/05 01:22:01;;;;;;;0.38;0.38;;;;;;;25.40;28.19;96795.56;4995393;28;20046;-60
2021/05/05 01:24:26;;;;;;;0.10;0.10;;;;;;;26.06;27.92;96792.31;4995433;28;20068;-59
2021/05/05 01:26:52;;;;;;;0.10;0.10;;;;;;;26.58;27.41;96801.59;5013364;28;20474;-60
2021/05/05 01:29:18;;;;;;;0.10;0.10;;;;;;;27.18;27.34;96790.34;5013206;28;20038;-61
2021/05/05 01:31:45;;;;;;;0.10;0.10;;;;;;;27.80;26.99;96789.41;5012806;28;20034;-62
2021/05/05 01:34:12;;;;;;;0.10;0.10;;;;;;;28.35;26.72;96793.16;5012804;28;20034;-61
2021/05/05 01:36:38;;;;;;;0.40;0.40;;;;;;;28.75;26.15;96789.13;5013118;28;20030;-62
2021/05/05 01:39:09;;;;;;;0.20;0.20;;;;;;;29.16;26.07;96773.72;5013051;28;20033;-62
2021/05/05 01:41:35;;;;;;;0.20;0.20;;;;;;;29.60;25.92;96769.53;5012868;28;20037;-61
2021/05/05 01:44:01;;;;;;;0.20;0.20;;;;;;;30.07;25.72;96785.47;5012829;28;20029;-62
2021/05/05 01:46:27;;;;;;;0.10;0.10;;;;;;;30.68;25.24;96780.19;4995616;28;20115;-62
2021/05/05 01:48:53;;;;;;;0.15;0.15;;;;;;;31.21;24.87;96774.41;5013286;28;20037;-62
2021/05/05 01:51:19;;;;;;;0.10;0.10;;;;;;;31.64;24.80;96765.41;5013689;28;20032;-61
2021/05/05 01:53:44;;;;;;;0.10;0.10;;;;;;;32.02;24.64;96768.09;5019385;28;20026;-61
2021/05/05 01:56:10;;;;;;;0.30;0.30;;;;;;;32.38;24.41;96764.75;5019670;28;20490;-61
2021/05/05 01:58:36;;;;;;;0.10;0.10;;;;;;;32.58;24.34;96764.00;5001494;28;20058;-61
2021/05/05 02:01:03;;;;;;;0.10;0.10;;;;;;;32.80;24.11;96758.78;5001448;28;20554;-61
2021/05/05 02:03:30;;;;;;;0.10;0.10;;;;;;;33.03;24.11;96760.00;5019055;28;20037;-61
2021/05/05 02:05:56;;;;;;;0.00;0.00;;;;;;;33.29;24.22;96761.13;5019069;28;20036;-60
2021/05/05 02:08:21;;;;;;;0.03;0.03;;;;;;;33.60;23.91;96756.03;5001421;28;20454;-62
2021/05/05 02:10:47;;;;;;;0.10;0.10;;;;;;;33.89;23.52;96761.13;5019484;28;20026;-62
2021/05/05 02:13:14;;;;;;;0.10;0.10;;;;;;;34.12;23.62;96748.78;5019111;28;20040;-62
2021/05/05 02:15:39;;;;;;;0.10;0.10;;;;;;;34.48;23.35;96747.16;5019151;28;20060;-62
2021/05/05 02:18:09;;;;;;;0.10;0.10;;;;;;;34.94;23.15;96738.66;5019492;28;20045;-61
2021/05/05 02:20:36;;;;;;;0.00;0.00;;;;;;;35.45;22.55;96744.59;5019654;28;20133;-60
2021/05/05 02:23:02;;;;;;;0.10;0.10;;;;;;;36.13;22.26;96741.72;5019204;28;20448;-61
2021/05/05 02:25:28;;;;;;;0.10;0.10;;;;;;;36.90;21.46;96740.91;5019140;28;20032;-62
2021/05/05 02:27:54;;;;;;;0.10;0.10;;;;;;;37.40;21.13;96738.28;5019305;28;20069;-62
2021/05/05 02:30:21;;;;;;;0.10;0.10;;;;;;;37.83;20.99;96728.88;5019102;28;20072;-62
2021/05/05 02:32:49;;;;;;;0.10;0.10;;;;;;;38.15;21.05;96726.81;5018678;28;20034;-62
2021/05/05 02:35:16;;;;;;;0.05;0.05;;;;;;;36.16;23.03;96723.72;5001699;28;20451;-62
2021/05/05 02:37:45;;;;;;;0.10;0.10;;;;;;;32.65;26.57;96718.44;5018691;28;20500;-61
2021/05/05 02:40:13;;;;;;;0.10;0.10;;;;;;;29.92;29.50;96733.81;5018400;28;20088;-61
2021/05/05 02:42:39;;;;;;;0.10;0.10;;;;;;;28.19;31.18;96723.81;5019109;28;20496;-61
2021/05/05 02:45:05;;;;;;;0.13;0.13;;;;;;;26.90;32.38;96727.03;5018645;28;20065;-61
2021/05/05 02:47:31;;;;;;;0.10;0.10;;;;;;;25.94;32.89;96739.94;5018381;28;20065;-61
2021/05/05 02:49:57;;;;;;;0.10;0.10;;;;;;;25.58;32.70;96752.81;5018638;28;20135;-61
2021/05/05 02:52:23;;;;;;;0.10;0.10;;;;;;;25.45;32.17;96746.66;5019090;28;20172;-61
2021/05/05 02:54:49;;;;;;;0.13;0.13;;;;;;;25.34;31.66;96732.50;5018747;28;20404;-61
2021/05/05 02:57:14;;;;;;;0.10;0.10;;;;;;;26.90;29.18;96727.03;5000562;28;20132;-60
2021/05/05 02:59:43;;;;;;;0.00;0.00;;;;;;;29.07;26.29;96730.97;5019090;28;20045;-59
2021/05/05 03:02:09;;;;;;;0.10;0.10;;;;;;;30.93;24.46;96728.94;5018491;28;20036;-61
2021/05/05 03:04:35;;;;;;;0.10;0.10;;;;;;;32.88;22.46;96733.88;5015279;28;20034;-60
2021/05/05 03:07:01;;;;;;;0.10;0.10;;;;;;;34.01;21.98;96731.16;5015586;28;20033;-61
2021/05/05 03:09:27;;;;;;;0.10;0.10;;;;;;;32.78;23.37;96710.91;5014113;28;20030;-61
2021/05/05 03:11:58;;;;;;;0.10;0.10;;;;;;;30.59;25.60;96717.53;5015748;28;20036;-60
2021/05/05 03:14:28;;;;;;;0.10;0.10;;;;;;;28.53;27.93;96706.44;5015333;28;20038;-60
2021/05/05 03:16:57;;;;;;;0.08;0.08;;;;;;;27.03;29.30;96711.41;5015129;28;20503;-60
2021/05/05 03:19:24;;;;;;;0.20;0.20;;;;;;;25.86;30.42;96716.56;5013889;28;20495;-61
2021/05/05 03:21:50;;;;;;;0.10;0.10;;;;;;;26.48;29.06;96714.28;5015208;28;20025;-61
2021/05/05 03:24:16;;;;;;;0.17;0.17;;;;;;;29.08;26.13;96709.97;5014958;28;20046;-61
2021/05/05 03:26:41;;;;;;;0.10;0.10;;;;;;;31.24;23.78;96714.84;5013711;28;20064;-60
2021/05/05 03:29:07;;;;;;;0.10;0.10;;;;;;;33.06;22.21;96714.44;5015507;28;20488;-60
2021/05/05 03:31:34;;;;;;;0.10;0.10;;;;;;;34.32;21.39;96694.66;5013727;28;20034;-61
2021/05/05 03:34:00;;;;;;;0.10;0.10;;;;;;;35.04;20.82;96697.66;4997227;28;20036;-61
2021/05/05 03:36:26;;;;;;;0.10;0.10;;;;;;;35.48;20.55;96691.53;4997024;28;20030;-61
2021/05/05 03:38:52;;;;;;;0.10;0.10;;;;;;;36.06;20.56;96684.88;5014950;28;20030;-61
2021/05/05 03:41:18;;;;;;;0.10;0.10;;;;;;;36.50;20.65;96682.19;5014995;28;20037;-60
2021/05/05 03:43:43;;;;;;;0.10;0.10;;;;;;;36.88;20.60;96686.19;5015356;28;20034;-61
2021/05/05 03:46:09;;;;;;;0.10;0.10;;;;;;;37.00;20.63;96680.44;5014980;28;20033;-61
2021/05/05 03:48:35;;;;;;;0.30;0.30;;;;;;;36.73;21.12;96677.31;5014839;28;20087;-61
2021/05/05 03:51:03;;;;;;;0.10;0.10;;;;;;;36.56;20.82;96676.66;5014964;28;20399;-60
2021/05/05 03:53:29;;;;;;;0.10;0.10;;;;;;;36.62;21.15;96678.50;5014553;28;20550;-62
2021/05/05 03:55:55;;;;;;;0.10;0.10;;;;;;;36.93;20.93;96683.56;4997294;28;20029;-60
2021/05/05 03:58:21;;;;;;;0.10;0.10;;;;;;;37.27;20.93;96681.94;4996506;28;20107;-60
2021/05/05 04:00:47;;;;;;;0.10;0.10;;;;;;;37.42;20.55;96676.47;5013323;28;20026;-60
2021/05/05 04:03:12;;;;;;;0.10;0.10;;;;;;;37.54;20.63;96671.13;5010384;28;20044;-61
2021/05/05 04:05:38;;;;;;;0.20;0.20;;;;;;;37.47;20.50;96663.59;5013998;28;20391;-60
2021/05/05 04:08:05;;;;;;;0.10;0.10;;;;;;;37.46;20.77;96656.28;4996552;28;20518;-61
2021/05/05 04:10:31;;;;;;;0.10;0.10;;;;;;;37.54;20.48;96657.59;4996823;28;20408;-60
2021/05/05 04:12:56;;;;;;;0.10;0.10;;;;;;;37.49;20.57;96653.28;5013640;28;20044;-61
2021/05/05 04:15:22;;;;;;;0.10;0.10;;;;;;;37.45;20.47;96649.75;5012629;28;20120;-61
2021/05/05 04:17:48;;;;;;;0.10;0.10;;;;;;;37.56;20.32;96640.78;5014162;28;20034;-62
2021/05/05 04:20:18;;;;;;;0.20;0.20;;;;;;;37.32;20.53;96629.84;5014175;28;20427;-61
2021/05/05 04:22:44;;;;;;;0.10;0.10;;;;;;;37.32;20.86;96641.28;5014404;28;20037;-61
2021/05/05 04:25:10;;;;;;;0.10;0.10;;;;;;;37.63;20.17;96636.81;5013985;28;20031;-61
2021/05/05 04:27:37;;;;;;;0.10;0.10;;;;;;;38.07;19.86;96628.09;5013977;28;20038;-64
2021/05/05 04:30:05;;;;;;;0.10;0.10;;;;;;;38.56;19.67;96617.84;4994637;28;20057;-61
2021/05/05 04:32:31;;;;;;;0.10;0.10;;;;;;;38.41;20.03;96626.28;5013757;28;20117;-61
2021/05/05 04:34:57;;;;;;;0.10;0.10;;;;;;;38.10;20.31;96623.47;5014445;28;20117;-62
2021/05/05 04:37:22;;;;;;;0.20;0.20;;;;;;;37.90;20.30;96633.31;5013648;28;20034;-61
2021/05/05 04:39:48;;;;;;;0.10;0.10;;;;;;;38.47;19.69;96635.81;5013725;28;20025;-62
2021/05/05 04:42:14;;;;;;;0.10;0.10;;;;;;;38.76;19.68;96617.41;5014207;28;20121;-61
2021/05/05 04:44:40;;;;;;;0.10;0.10;;;;;;;38.20;19.82;96607.94;5014102;28;20030;-61
2021/05/05 04:47:05;;;;;;;0.03;0.03;;;;;;;36.90;21.33;96607.28;5012348;28;20526;-62
2021/05/05 04:49:31;;;;;;;0.10;0.10;;;;;;;35.72;21.99;96594.94;5013427;28;20373;-62
2021/05/05 04:51:57;;;;;;;0.10;0.10;;;;;;;35.05;22.69;96602.28;5013430;28;20079;-60
2021/05/05 04:54:23;;;;;;;0.22;0.22;;;;;;;34.68;22.44;96598.84;5013213;28;20030;-61
2021/05/05 04:56:48;;;;;;;0.10;0.10;;;;;;;33.71;23.11;96596.44;5013553;28;20041;-61
2021/05/05 04:59:14;;;;;;;0.00;0.00;;;;;;;32.58;23.54;96587.88;5013965;28;20053;-61
2021/05/05 05:01:40;;;;;;;0.10;0.10;;;;;;;31.34;24.54;96576.19;5013996;28;20053;-62
2021/05/05 05:04:06;;;;;;;0.17;0.17;;;;;;;30.30;25.12;96579.06;5013579;28;20034;-65
2021/05/05 05:06:32;;;;;;;0.00;0.00;;;;;;;29.38;25.63;96581.47;5013714;28;20041;-66
2021/05/05 05:08:58;;;;;;;0.10;0.10;;;;;;;28.69;25.65;96581.81;5013585;28;20026;-69
2021/05/05 05:11:24;;;;;;;0.08;0.08;;;;;;;28.10;25.87;96580.34;4996134;28;20030;-69
2021/05/05 05:13:50;;;;;;;0.10;0.10;;;;;;;27.55;25.88;96561.03;5013519;28;20645;-68
2021/05/05 05:16:15;;;;;;;0.10;0.10;;;;;;;27.05;25.98;96559.72;5009394;28;20115;-69
2021/05/05 05:18:41;;;;;;;0.05;0.05;;;;;;;26.64;26.42;96565.63;5011850;28;20044;-68
2021/05/05 05:21:07;;;;;;;0.00;0.00;;;;;;;26.26;26.32;96558.59;4993522;28;20124;-68
2021/05/05 05:23:34;;;;;;;0.10;0.10;;;;;;;25.80;26.37;96555.09;5011584;28;20552;-62
2021/05/05 05:26:00;;;;;;;0.52;0.10;;;;;;;25.50;26.31;96556.06;5009213;28;20254;-62
2021/05/05 05:28:27;;;;;;;0.00;0.00;;;;;;;25.31;25.95;96550.69;5008294;28;20030;-63
2021/05/05 05:30:53;;;;;;;0.10;0.10;;;;;;;25.09;25.87;96541.22;5011379;28;20029;-61
2021/05/05 05:33:19;;;;;;;0.00;0.00;;;;;;;24.97;25.69;96547.91;5011460;28;20132;-63
2021/05/05 05:35:44;;;;;;;0.10;0.10;;;;;;;24.96;25.43;96541.50;5011034;28;20022;-61
2021/05/05 05:38:11;;;;;;;0.10;0.10;;;;;;;24.96;25.34;96549.91;5010987;28;20037;-61
2021/05/05 05:40:37;;;;;;;0.10;0.10;;;;;;;24.94;24.83;96543.06;5011392;28;20030;-61
2021/05/05 05:43:03;;;;;;;0.10;0.10;;;;;;;24.73;25.09;96538.84;5010304;28;20105;-62
2021/05/05 05:45:29;;;;;;;0.10;0.10;;;;;;;24.56;24.78;96537.44;4993310;28;20116;-62
2021/05/05 05:47:55;;;;;;;0.00;0.00;;;;;;;24.33;24.93;96534.75;5008639;28;20022;-62
2021/05/05 05:50:21;;;;;;;0.47;0.40;;;;;;;24.09;24.99;96525.63;5010761;28;20034;-65
2021/05/05 05:52:47;;;;;;;0.10;0.10;;;;;;;23.91;24.97;96524.56;5010987;28;20041;-63
2021/05/05 05:55:15;;;;;;;0.08;0.08;;;;;;;23.75;25.18;96516.31;5010949;28;20026;-63
2021/05/05 05:57:43;;;;;;;0.10;0.10;;;;;;;23.67;25.08;96521.00;5010756;28;20042;-63
2021/05/05 06:00:12;;;;;;;0.03;0.03;;;;;;;23.65;24.73;96523.38;5010750;28;20117;-62
2021/05/05 06:02:38;;;;;;;0.20;0.20;;;;;;;23.66;24.63;96519.41;5008445;28;20056;-63
2021/05/05 06:05:05;;;;;;;0.10;0.10;;;;;;;23.75;24.39;96519.91;4993442;28;20030;-62
2021/05/05 06:07:31;;;;;;;0.10;0.10;;;;;;;23.81;24.22;96512.00;5010526;28;20041;-63
2021/05/05 06:09:57;;;;;;;0.05;0.05;;;;;;;23.85;24.19;96514.84;5010989;28;20034;-62
2021/05/05 06:12:23;;;;;;;0.10;0.10;;;;;;;23.93;23.85;96505.41;5011252;28;20022;-62
2021/05/05 06:14:49;;;;;;;0.10;0.10;;;;;;;24.03;23.75;96513.13;5011047;28;20034;-63
2021/05/05 06:17:15;;;;;;;0.10;0.10;;;;;;;24.22;23.51;96502.94;5010975;28;20041;-63
2021/05/05 06:19:40;;;;;;;0.10;0.10;;;;;;;24.44;23.47;96504.84;5010765;28;20073;-66
2021/05/05 06:22:06;;;;;;;0.10;0.10;;;;;;;24.64;23.23;96504.69;5010921;28;20571;-64
2021/05/05 06:24:32;;;;;;;0.10;0.10;;;;;;;24.76;22.68;96484.75;5010702;28;20036;-64
2021/05/05 06:26:58;;;;;;;0.10;0.10;;;;;;;24.87;22.61;96478.44;4993280;28;20026;-62
2021/05/05 06:29:24;;;;;;;0.10;0.10;;;;;;;24.96;22.72;96470.53;5009262;28;20095;-63
2021/05/05 06:31:50;;;;;;;0.10;0.10;;;;;;;25.07;22.65;96460.16;5010477;28;20042;-64
2021/05/05 06:34:16;;;;;;;0.10;0.10;;;;;;;25.14;22.58;96476.28;5007875;28;20026;-64
2021/05/05 06:36:42;;;;;;;0.10;0.10;;;;;;;25.24;22.12;96469.16;5007953;28;20415;-63
2021/05/05 06:39:08;;;;;;;0.10;0.10;;;;;;;25.37;22.08;96464.88;5011676;28;20022;-63
2021/05/05 06:41:38;;;;;;;0.10;0.10;;;;;;;25.46;22.23;96459.72;5014648;28;20514;-64
2021/05/05 06:44:05;;;;;;;0.10;0.10;;;;;;;25.62;21.78;96450.19;5014173;28;20116;-64
2021/05/05 06:46:31;;;;;;;0.10;0.10;;;;;;;25.73;21.64;96459.47;5014818;28;20033;-65
2021/05/05 06:48:58;;;;;;;0.10;0.10;;;;;;;25.83;21.83;96458.72;5014294;28;20022;-64
2021/05/05 06:51:24;;;;;;;0.10;0.10;;;;;;;25.85;22.02;96456.34;5014712;28;20026;-63
2021/05/05 06:53:50;;;;;;;0.20;0.20;;;;;;;25.83;21.84;96444.66;5014864;28;20042;-63
2021/05/05 06:56:16;;;;;;;0.10;0.10;;;;;;;25.81;21.91;96451.88;5012165;28;20022;-64
2021/05/05 06:58:42;;;;;;;0.10;0.10;;;;;;;25.79;21.79;96443.03;5014331;28;20069;-65
2021/05/05 07:01:09;;;;;;;0.10;0.10;;;;;;;25.79;21.93;96438.22;5014759;28;20125;-63
2021/05/05 07:03:35;;;;;;;0.30;0.30;;;;;;;25.86;21.89;96421.41;5014542;28;20456;-63
2021/05/05 07:06:02;;;;;;;0.10;0.10;;;;;;;25.85;21.76;96436.66;5014722;28;20029;-64
2021/05/05 07:08:28;;;;;;;0.10;0.10;;;;;;;25.91;21.63;96439.09;5015124;28;20038;-64
2021/05/05 07:10:53;;;;;;;0.10;0.10;;;;;;;26.09;21.44;96427.94;5013753;28;20040;-64
2021/05/05 07:13:20;;;;;;;0.20;0.20;;;;;;;26.30;21.10;96427.22;5015100;28;20116;-63
2021/05/05 07:15:46;;;;;;;0.00;0.00;;;;;;;26.47;20.73;96425.66;5014966;28;20446;-63
2021/05/05 07:18:12;;;;;;;0.10;0.10;;;;;;;26.56;21.16;96414.81;5015249;28;20100;-63
2021/05/05 07:20:38;;;;;;;0.10;0.10;;;;;;;26.53;20.89;96412.78;5014867;28;20095;-65
2021/05/05 07:23:03;;;;;;;0.10;0.10;;;;;;;26.46;20.84;96402.34;5015468;28;20030;-61
2021/05/05 07:25:29;;;;;;;0.10;0.10;;;;;;;26.39;21.04;96416.41;5016082;28;20030;-65
2021/05/05 07:27:57;;;;;;;0.00;0.00;;;;;;;26.21;21.13;96397.47;5014764;28;20128;-65
2021/05/05 07:30:24;;;;;;;0.08;0.08;;;;;;;25.96;21.17;96391.72;5014702;28;20022;-62
2021/05/05 07:32:50;;;;;;;0.10;0.10;;;;;;;25.69;21.76;96399.63;5014946;28;20041;-63
2021/05/05 07:35:18;;;;;;;0.10;0.10;;;;;;;25.53;21.77;96397.94;5014600;28;20022;-63
2021/05/05 07:45:52;;;;;;;0.20;0.20;;;;;;;25.68;21.40;96372.75;4973338;28;20050;-63
2021/05/05 07:48:28;;;;;;;0.10;0.10;;;;;;;25.67;21.39;96385.19;4973132;28;20117;-63
2021/05/05 07:50:55;;;;;;;0.10;0.10;;;;;;;25.67;21.43;96357.88;4972767;28;20138;-62
2021/05/05 07:53:21;;;;;;;0.10;0.10;;;;;;;25.74;21.09;96361.94;4973116;28;20037;-62
2021/05/05 07:55:47;;;;;;;0.10;0.10;;;;;;;25.75;21.06;96353.09;4973126;28;20035;-61
2021/05/05 07:58:13;;;;;;;0.10;0.10;;;;;;;25.74;21.23;96361.94;4972857;28;20054;-61
2021/05/05 08:00:40;;;;;;;0.10;0.10;;;;;;;25.69;21.18;96354.66;4973123;28;20125;-61
2021/05/05 08:03:06;;;;;;;0.10;0.10;;;;;;;25.64;21.22;96352.25;4973109;28;20396;-63
2021/05/05 08:05:32;;;;;;;0.10;0.10;;;;;;;25.50;21.00;96320.06;4972980;28;20030;-60
2021/05/05 08:07:58;;;;;;;0.10;0.10;;;;;;;25.38;21.42;96337.25;4972730;28;20027;-60
2021/05/05 08:10:24;;;;;;;0.10;0.10;;;;;;;25.35;21.17;96340.84;4972464;28;20046;-63
2021/05/05 08:12:50;;;;;;;0.10;0.10;;;;;;;25.30;21.23;96327.16;4972799;28;20524;-62
2021/05/05 08:15:16;;;;;;;0.10;0.10;;;;;;;25.25;21.42;96319.94;4972433;28;20045;-60
2021/05/05 08:17:43;;;;;;;0.10;0.10;;;;;;;25.20;21.14;96314.66;4972416;28;20073;-60
2021/05/05 08:20:10;;;;;;;0.20;0.20;;;;;;;25.10;21.18;96296.59;4956509;28;20026;-59
2021/05/05 08:22:36;;;;;;;0.10;0.10;;;;;;;25.01;21.17;96308.16;4993859;28;20052;-60
2021/05/05 08:25:03;;;;;;;0.10;0.10;;;;;;;24.99;21.12;96284.47;5013960;28;20121;-61
2021/05/05 08:27:28;;;;;;;0.10;0.10;;;;;;;24.99;21.42;96287.28;5013908;28;20116;-62
2021/05/05 08:29:54;;;;;;;0.10;0.10;;;;;;;24.94;21.10;96274.44;5014476;28;20129;-61
2021/05/05 08:32:21;;;;;;;0.20;0.20;;;;;;;24.92;21.10;96296.44;5013945;28;20089;-60
2021/05/05 08:34:47;;;;;;;0.10;0.10;;;;;;;24.93;21.03;96270.00;5013781;28;20038;-60
2021/05/05 08:37:13;;;;;;;0.00;0.00;;;;;;;24.93;21.13;96274.81;4996188;28;20026;-63
2021/05/05 08:39:38;;;;;;;0.10;0.10;;;;;;;24.92;20.85;96290.03;5013748;28;20514;-62
2021/05/05 08:42:05;;;;;;;0.10;0.10;;;;;;;24.86;20.96;96272.75;5013915;28;20025;-61
2021/05/05 08:44:32;;;;;;;0.10;0.10;;;;;;;24.83;20.98;96271.53;5014052;28;20077;-60
2021/05/05 08:46:57;;;;;;;0.10;0.10;;;;;;;24.84;20.85;96273.16;5013569;28;20025;-59
2021/05/05 08:49:24;;;;;;;0.10;0.10;;;;;;;24.72;21.09;96261.44;5013749;28;20049;-60
2021/05/05 08:51:50;;;;;;;0.10;0.10;;;;;;;24.58;21.00;96276.16;5013703;28;20062;-60
2021/05/05 08:54:16;;;;;;;0.10;0.10;;;;;;;24.54;21.25;96269.69;5013891;28;20117;-62
2021/05/05 08:56:43;;;;;;;0.00;0.00;;;;;;;24.60;21.13;96268.16;5013675;28;20064;-60
2021/05/05 08:59:15;;;;;;;0.00;0.00;;;;;;;24.59;20.96;96255.34;5013229;28;20534;-60
2021/05/05 09:01:42;;;;;;;0.10;0.10;;;;;;;24.64;20.98;96252.16;4995318;28;20037;-60
2021/05/05 09:04:09;;;;;;;0.10;0.10;;;;;;;24.72;20.82;96251.03;5012673;28;20042;-59
2021/05/05 09:06:54;;;;;;;0.10;0.10;;;;;;;24.74;20.58;96226.19;5013702;28;20034;-61
2021/05/05 09:09:40;;;;;;;0.00;0.00;;;;;;;24.73;20.54;96230.19;5011853;28;20041;-59
2021/05/05 09:12:16;;;;;;;0.10;0.10;;;;;;;24.81;20.83;96240.25;5011767;28;20029;-60
2021/05/05 09:14:51;;;;;;;0.00;0.00;;;;;;;24.98;20.49;96237.94;5013024;28;20042;-61
2021/05/05 09:17:19;;;;;;;0.10;0.10;;;;;;;25.07;20.68;96227.16;5013026;28;20026;-59
2021/05/05 09:19:45;;;;;;;0.08;0.08;;;;;;;25.18;20.59;96222.41;5012571;28;20037;-60
2021/05/05 09:22:10;;;;;;;0.00;0.00;;;;;;;25.26;20.45;96219.63;5013060;28;20049;-61
2021/05/05 09:24:39;;;;;;;0.00;0.00;;;;;;;25.32;20.43;96216.09;5013419;28;20037;-61
2021/05/05 09:27:10;;;;;;;0.00;0.00;;;;;;;25.38;20.44;96205.25;5011687;28;20034;-60
2021/05/05 09:29:46;;;;;;;0.17;0.17;;;;;;;25.46;19.98;96212.50;5013126;28;20033;-61
2021/05/05 09:32:20;;;;;;;1.42;0.15;;;;;;;25.49;20.28;96189.22;5012775;28;20030;-61
2021/05/05 09:34:56;;;;;;;;;;;;;;;25.42;20.03;96188.41;5013355;28;20044;-60
2021/05/05 09:37:24;;;;;;;0.10;0.10;;;;;;;25.48;20.31;96198.06;5012805;28;19925;-59
2021/05/05 09:40:01;;;;;;;0.10;0.10;;;;;;;25.57;20.00;96189.25;5012111;28;20026;-61
2021/05/05 09:42:32;;;;;;;0.10;0.10;;;;;;;25.60;19.95;96194.06;5013264;28;20041;-62
2021/05/05 09:45:07;;;;;;;0.00;0.00;;;;;;;25.68;19.90;96192.91;5012912;28;20038;-59
2021/05/05 09:47:51;;;;;;;0.10;0.10;;;;;;;25.81;19.86;96193.28;5011312;28;20033;-59
2021/05/05 09:50:37;;;;;;;0.10;0.10;;;;;;;25.82;19.78;96195.69;5011204;28;20041;-60
2021/05/05 09:53:38;;;;;;;0.10;0.10;;;;;;;25.86;20.10;96190.91;5012863;28;20064;-61
2021/05/05 09:56:04;;;;;;;0.00;0.00;;;;;;;25.98;19.99;96192.50;5008658;28;20460;-60
2021/05/05 09:58:32;;;;;;;0.10;0.10;;;;;;;26.05;19.89;96175.69;5012264;28;20145;-60
2021/05/05 10:01:04;;;;;;;0.10;0.10;;;;;;;26.09;19.87;96175.69;5012822;28;20458;-61
2021/05/05 10:03:36;;;;;;;0.10;0.10;;;;;;;26.04;19.91;96164.84;5012333;28;20030;-60
2021/05/05 10:06:20;;;;;;;0.10;0.10;;;;;;;26.01;19.68;96168.44;5011153;28;20080;-60
2021/05/05 10:08:51;;;;;;;0.10;0.10;;;;;;;26.06;19.65;96148.38;5012770;28;20125;-61
2021/05/05 10:11:25;;;;;;;0.10;0.10;;;;;;;26.12;19.59;96174.06;5012348;28;20519;-60
2021/05/05 10:13:59;;;;;;;0.10;0.10;;;;;;;26.13;19.64;96158.81;5015432;28;20046;-62
2021/05/05 10:16:26;;;;;;;0.00;0.00;;;;;;;26.12;19.63;96157.19;5016711;28;20034;-60
2021/05/05 10:18:52;;;;;;;0.10;0.10;;;;;;;26.11;19.66;96149.97;5016497;28;20156;-63
2021/05/05 10:21:25;;;;;;;0.10;0.10;;;;;;;26.07;19.54;96144.34;5015101;28;20054;-61
2021/05/05 10:23:53;;;;;;;0.10;0.10;;;;;;;25.99;19.97;96153.97;5016483;28;20033;-60
2021/05/05 10:26:20;;;;;;;0.00;0.00;;;;;;;25.97;19.79;96137.50;5016274;28;20050;-61
2021/05/05 10:28:46;;;;;;;0.90;0.35;;;;;;;26.07;19.82;96158.41;5016659;28;20042;-61
2021/05/05 10:31:17;;;;;;;0.10;0.10;;;;;;;26.23;19.60;96141.13;4998466;28;20026;-59
2021/05/05 10:33:46;;;;;;;0.10;0.10;;;;;;;26.35;19.29;96132.28;5015939;28;20090;-60
2021/05/05 10:36:36;;;;;;;0.10;0.10;;;;;;;26.37;19.44;96152.34;5015995;28;20034;-60
2021/05/05 10:39:17;;;;;;;0.10;0.10;;;;;;;26.31;19.25;96137.09;5016034;28;20499;-60
2021/05/05 10:41:58;;;;;;;0.10;0.10;;;;;;;26.17;19.50;96143.53;5016309;28;20158;-61
2021/05/05 10:44:41;;;;;;;0.10;0.10;;;;;;;26.05;19.82;96144.75;5001144;28;20041;-59
2021/05/05 10:47:20;;;;;;;0.10;0.10;;;;;;;25.99;19.92;96148.34;5015702;28;20176;-61
2021/05/05 10:52:42;;;;;;;0.00;0.00;;;;;;;25.83;19.88;96143.91;5015643;28;20041;-61
2021/05/05 10:55:10;;;;;;;0.10;0.10;;;;;;;25.75;20.17;96133.06;5015843;28;20045;-62
2021/05/05 10:57:38;;;;;;;0.10;0.10;;;;;;;25.56;19.88;96126.66;5015187;28;20057;-62
2021/05/05 11:00:05;;;;;;;0.10;0.10;;;;;;;25.46;19.98;96144.28;5015754;28;20040;-61
2021/05/05 11:02:40;;;;;;;0.55;0.10;;;;;;;25.45;19.98;96149.09;5014330;28;20096;-61
2021/05/05 11:05:09;;;;;;;0.10;0.10;;;;;;;25.49;19.84;96133.03;5015995;28;20029;-61
2021/05/05 11:07:49;;;;;;;0.10;0.10;;;;;;;25.52;19.74;96126.63;5015589;28;20034;-62
2021/05/05 11:10:34;;;;;;;0.10;0.10;;;;;;;25.51;19.66;96139.09;5015561;28;20077;-59
2021/05/05 11:13:04;;;;;;;0.20;0.20;;;;;;;25.50;19.63;96131.03;5015169;28;20040;-60
2021/05/05 11:15:42;;;;;;;0.10;0.10;;;;;;;25.48;20.01;96137.06;5014449;28;20030;-61
2021/05/05 11:21:08;;;;;;;0.00;0.00;;;;;;;25.57;19.51;96130.25;5012611;28;20048;-62
2021/05/05 11:26:21;;;;;;;0.10;0.10;;;;;;;25.64;19.78;96139.50;5012455;28;20261;-62
2021/05/05 11:29:02;;;;;;;0.03;0.03;;;;;;;25.80;19.31;96127.84;4995634;28;20037;-61
2021/05/05 11:31:49;;;;;;;0.00;0.00;;;;;;;25.91;19.60;96127.84;5011599;28;20046;-61
2021/05/05 11:34:20;;;;;;;0.00;0.00;;;;;;;25.91;19.13;96133.47;5012813;28;20503;-62
2021/05/05 11:36:58;;;;;;;0.00;0.00;;;;;;;25.75;19.40;96127.44;5013182;28;20107;-62
2021/05/05 11:39:27;;;;;;;0.00;0.00;;;;;;;25.49;19.90;96151.91;5013167;28;20514;-62
2021/05/05 11:42:12;;;;;;;0.10;0.10;;;;;;;25.21;20.15;96153.44;4994256;28;20036;-62
2021/05/05 11:44:43;;;;;;;0.15;0.15;;;;;;;24.94;20.34;96169.75;5013722;28;20029;-63
2021/05/05 11:47:28;;;;;;;0.10;0.10;;;;;;;24.62;20.51;96159.19;5014807;28;20069;-64
2021/05/05 11:49:56;;;;;;;0.00;0.00;;;;;;;24.20;20.82;96199.75;5014418;28;20041;-63
2021/05/05 11:52:50;;;;;;;0.00;0.00;;;;;;;23.93;21.01;96197.91;5014602;28;20025;-65
2021/05/05 11:55:22;;;;;;;0.00;0.00;;;;;;;23.67;21.34;96218.44;5014524;28;20034;-66